sensor_id;sensor_type;location;lat;lon;timestamp;pressure;altitude;pressure_sealevel;temperature;humidity
68077;BME280;54866;53.458;14.540;2023-05-12T14:23:40;101161.46;;;23.07;22.53
68077;BME280;54866;53.458;14.540;2023-05-12T14:26:10;101166.42;;;22.98;23.11
68077;BME280;54866;53.458;14.540;2023-05-12T14:28:39;101169.55;;;23.13;23.28
68077;BME280;54866;53.458;14.540;2023-05-12T14:31:09;101161.27;;;23.22;23.90
68077;BME280;54866;53.458;14.540;2023-05-12T14:33:39;101168.94;;;23.34;24.16
68077;BME280;54866;53.458;14.540;2023-05-12T14:36:10;101170.80;;;23.32;23.87
68077;BME280;54866;53.458;14.540;2023-05-12T14:38:39;101163.91;;;23.23;23.76
68077;BME280;54866;53.458;14.540;2023-05-12T14:41:09;101169.90;;;23.15;23.53
68077;BME280;54866;53.458;14.540;2023-05-12T14:43:39;101169.70;;;23.32;23.38
68077;BME280;54866;53.458;14.540;2023-05-12T14:46:09;101172.77;;;23.43;23.17
68077;BME280;54866;53.458;14.540;2023-05-12T14:48:39;101172.98;;;23.52;23.21
68077;BME280;54866;53.458;14.540;2023-05-12T14:51:08;101172.61;;;23.49;23.41
68077;BME280;54866;53.458;14.540;2023-05-12T14:53:38;101177.05;;;23.54;23.75
68077;BME280;54866;53.458;14.540;2023-05-12T14:56:08;101170.50;;;23.44;23.42
68077;BME280;54866;53.458;14.540;2023-05-12T14:58:37;101174.52;;;23.47;23.33
68077;BME280;54866;53.458;14.540;2023-05-12T15:01:07;101174.05;;;23.51;22.77
68077;BME280;54866;53.458;14.540;2023-05-12T15:03:37;101173.16;;;23.45;22.58
68077;BME280;54866;53.458;14.540;2023-05-12T15:06:07;101166.66;;;23.26;22.54
68077;BME280;54866;53.458;14.540;2023-05-12T15:08:36;101158.40;;;23.19;23.05
68077;BME280;54866;53.458;14.540;2023-05-12T15:11:06;101163.55;;;23.11;23.82
68077;BME280;54866;53.458;14.540;2023-05-12T15:13:35;101168.14;;;23.07;24.07
68077;BME280;54866;53.458;14.540;2023-05-12T15:16:05;101167.04;;;23.02;24.16
68077;BME280;54866;53.458;14.540;2023-05-12T15:18:35;101165.71;;;22.98;23.87
68077;BME280;54866;53.458;14.540;2023-05-12T15:21:05;101161.31;;;22.87;23.42
68077;BME280;54866;53.458;14.540;2023-05-12T15:23:35;101163.27;;;22.68;23.58
68077;BME280;54866;53.458;14.540;2023-05-12T15:26:07;101169.77;;;22.54;23.88
68077;BME280;54866;53.458;14.540;2023-05-12T15:28:37;101171.47;;;22.45;24.37
68077;BME280;54866;53.458;14.540;2023-05-12T15:31:06;101164.16;;;22.41;24.81
68077;BME280;54866;53.458;14.540;2023-05-12T15:33:36;101155.52;;;22.23;24.29
68077;BME280;54866;53.458;14.540;2023-05-12T15:36:07;101167.30;;;22.07;24.27
68077;BME280;54866;53.458;14.540;2023-05-12T15:38:38;101169.70;;;22.03;24.45
68077;BME280;54866;53.458;14.540;2023-05-12T15:41:09;101174.25;;;21.99;24.60
68077;BME280;54866;53.458;14.540;2023-05-12T15:43:39;101171.98;;;21.99;24.52
68077;BME280;54866;53.458;14.540;2023-05-12T15:46:08;101172.05;;;22.03;24.80
68077;BME280;54866;53.458;14.540;2023-05-12T15:48:38;101171.54;;;21.98;23.55
68077;BME280;54866;53.458;14.540;2023-05-12T15:51:08;101171.55;;;21.81;24.23
68077;BME280;54866;53.458;14.540;2023-05-12T15:53:37;101171.84;;;21.83;25.09
68077;BME280;54866;53.458;14.540;2023-05-12T15:56:08;101174.65;;;21.81;25.34
68077;BME280;54866;53.458;14.540;2023-05-12T15:58:37;101171.00;;;21.74;24.99
68077;BME280;54866;53.458;14.540;2023-05-12T16:01:07;101174.63;;;21.77;25.45
68077;BME280;54866;53.458;14.540;2023-05-12T16:03:37;101172.34;;;21.73;24.99
68077;BME280;54866;53.458;14.540;2023-05-12T16:06:07;101168.98;;;21.76;25.09
68077;BME280;54866;53.458;14.540;2023-05-12T16:08:36;101169.31;;;21.80;25.58
68077;BME280;54866;53.458;14.540;2023-05-12T16:11:06;101165.41;;;21.70;25.54
68077;BME280;54866;53.458;14.540;2023-05-12T16:13:35;101168.95;;;21.67;25.68
68077;BME280;54866;53.458;14.540;2023-05-12T16:16:06;101163.02;;;21.64;26.27
68077;BME280;54866;53.458;14.540;2023-05-12T16:18:36;101162.45;;;21.67;25.98
68077;BME280;54866;53.458;14.540;2023-05-12T16:21:07;101162.63;;;21.66;25.85
68077;BME280;54866;53.458;14.540;2023-05-12T16:23:36;101158.61;;;21.62;25.70
68077;BME280;54866;53.458;14.540;2023-05-12T16:26:06;101162.42;;;21.60;25.95
68077;BME280;54866;53.458;14.540;2023-05-12T16:28:36;101159.14;;;21.53;25.26
68077;BME280;54866;53.458;14.540;2023-05-12T16:31:05;101158.28;;;21.51;25.50
68077;BME280;54866;53.458;14.540;2023-05-12T16:33:35;101157.83;;;21.46;25.41
68077;BME280;54866;53.458;14.540;2023-05-12T16:36:05;101160.70;;;21.43;25.88
68077;BME280;54866;53.458;14.540;2023-05-12T16:38:34;101166.44;;;21.41;26.02
68077;BME280;54866;53.458;14.540;2023-05-12T16:41:04;101161.80;;;21.33;26.11
68077;BME280;54866;53.458;14.540;2023-05-12T16:43:33;101158.05;;;21.27;26.14
68077;BME280;54866;53.458;14.540;2023-05-12T16:46:03;101161.20;;;21.21;25.89
68077;BME280;54866;53.458;14.540;2023-05-12T16:48:33;101162.95;;;21.20;26.13
68077;BME280;54866;53.458;14.540;2023-05-12T16:51:05;101163.79;;;21.13;25.99
68077;BME280;54866;53.458;14.540;2023-05-12T16:53:36;101167.04;;;21.10;26.15
68077;BME280;54866;53.458;14.540;2023-05-12T16:56:08;101165.22;;;21.10;26.58
68077;BME280;54866;53.458;14.540;2023-05-12T16:58:38;101165.47;;;21.01;26.52
68077;BME280;54866;53.458;14.540;2023-05-12T17:01:07;101165.86;;;20.96;27.37
68077;BME280;54866;53.458;14.540;2023-05-12T17:03:37;101167.23;;;20.91;27.89
68077;BME280;54866;53.458;14.540;2023-05-12T17:06:07;101164.63;;;20.81;27.52
68077;BME280;54866;53.458;14.540;2023-05-12T17:08:37;101172.45;;;20.70;26.94
68077;BME280;54866;53.458;14.540;2023-05-12T17:11:07;101170.60;;;20.68;26.29
68077;BME280;54866;53.458;14.540;2023-05-12T17:13:37;101168.20;;;20.63;26.40
68077;BME280;54866;53.458;14.540;2023-05-12T17:16:07;101170.55;;;20.60;26.55
68077;BME280;54866;53.458;14.540;2023-05-12T17:18:37;101175.05;;;20.54;26.46
68077;BME280;54866;53.458;14.540;2023-05-12T17:21:06;101180.48;;;20.52;26.14
68077;BME280;54866;53.458;14.540;2023-05-12T17:23:39;101179.70;;;20.49;26.53
68077;BME280;54866;53.458;14.540;2023-05-12T17:26:09;101182.55;;;20.44;26.98
68077;BME280;54866;53.458;14.540;2023-05-12T17:28:38;101180.48;;;20.39;27.30
68077;BME280;54866;53.458;14.540;2023-05-12T17:31:08;101183.60;;;20.32;27.63
68077;BME280;54866;53.458;14.540;2023-05-12T17:33:38;101185.52;;;20.27;27.56
68077;BME280;54866;53.458;14.540;2023-05-12T17:36:08;101186.80;;;20.22;27.79
68077;BME280;54866;53.458;14.540;2023-05-12T17:38:39;101182.02;;;20.15;27.34
68077;BME280;54866;53.458;14.540;2023-05-12T17:41:08;101193.52;;;20.10;27.44
68077;BME280;54866;53.458;14.540;2023-05-12T17:43:38;101190.85;;;20.05;27.61
68077;BME280;54866;53.458;14.540;2023-05-12T17:46:08;101193.52;;;19.99;27.81
68077;BME280;54866;53.458;14.540;2023-05-12T17:48:38;101193.70;;;19.92;27.62
68077;BME280;54866;53.458;14.540;2023-05-12T17:51:08;101198.91;;;19.87;27.57
68077;BME280;54866;53.458;14.540;2023-05-12T17:53:37;101204.08;;;19.85;27.96
68077;BME280;54866;53.458;14.540;2023-05-12T17:56:07;101203.02;;;19.81;27.98
68077;BME280;54866;53.458;14.540;2023-05-12T17:58:37;101207.55;;;19.74;28.27
68077;BME280;54866;53.458;14.540;2023-05-12T18:01:07;101204.58;;;19.70;28.52
68077;BME280;54866;53.458;14.540;2023-05-12T18:03:36;101204.80;;;19.66;28.94
68077;BME280;54866;53.458;14.540;2023-05-12T18:06:06;101203.18;;;19.60;29.26
68077;BME280;54866;53.458;14.540;2023-05-12T18:08:39;101207.84;;;19.52;29.27
68077;BME280;54866;53.458;14.540;2023-05-12T18:11:09;101199.17;;;19.43;28.95
68077;BME280;54866;53.458;14.540;2023-05-12T18:13:39;101202.61;;;19.41;29.24
68077;BME280;54866;53.458;14.540;2023-05-12T18:16:10;101205.93;;;19.35;29.48
68077;BME280;54866;53.458;14.540;2023-05-12T18:18:40;101206.60;;;19.29;29.47
68077;BME280;54866;53.458;14.540;2023-05-12T18:21:10;101209.77;;;19.23;29.81
68077;BME280;54866;53.458;14.540;2023-05-12T18:23:40;101214.39;;;19.18;29.81
68077;BME280;54866;53.458;14.540;2023-05-12T18:26:10;101213.19;;;19.13;29.99
68077;BME280;54866;53.458;14.540;2023-05-12T18:28:39;101216.23;;;19.08;30.22
68077;BME280;54866;53.458;14.540;2023-05-12T18:31:09;101222.16;;;19.01;30.54
68077;BME280;54866;53.458;14.540;2023-05-12T18:33:39;101229.92;;;18.91;31.00
68077;BME280;54866;53.458;14.540;2023-05-12T18:36:09;101229.36;;;18.85;31.10
68077;BME280;54866;53.458;14.540;2023-05-12T18:38:40;101235.36;;;18.77;31.49
68077;BME280;54866;53.458;14.540;2023-05-12T18:41:09;101235.81;;;18.69;31.41
68077;BME280;54866;53.458;14.540;2023-05-12T18:43:39;101243.08;;;18.63;31.71
68077;BME280;54866;53.458;14.540;2023-05-12T18:46:11;101239.45;;;18.56;31.56
68077;BME280;54866;53.458;14.540;2023-05-12T18:48:40;101241.00;;;18.52;32.04
68077;BME280;54866;53.458;14.540;2023-05-12T18:51:10;101244.98;;;18.46;32.14
68077;BME280;54866;53.458;14.540;2023-05-12T18:53:40;101250.77;;;18.40;32.31
68077;BME280;54866;53.458;14.540;2023-05-12T18:56:09;101253.46;;;18.34;32.40
68077;BME280;54866;53.458;14.540;2023-05-12T18:58:39;101254.94;;;18.29;32.53
68077;BME280;54866;53.458;14.540;2023-05-12T19:01:08;101260.98;;;18.22;32.58
68077;BME280;54866;53.458;14.540;2023-05-12T19:03:38;101262.98;;;18.18;32.84
68077;BME280;54866;53.458;14.540;2023-05-12T19:06:08;101264.91;;;18.13;32.93
68077;BME280;54866;53.458;14.540;2023-05-12T19:08:37;101266.58;;;18.07;33.09
68077;BME280;54866;53.458;14.540;2023-05-12T19:13:11;101274.66;;;18.00;33.70
68077;BME280;54866;53.458;14.540;2023-05-12T19:15:41;101281.77;;;17.90;33.84
68077;BME280;54866;53.458;14.540;2023-05-12T19:18:11;101284.34;;;17.81;33.99
68077;BME280;54866;53.458;14.540;2023-05-12T19:20:40;101283.86;;;17.75;34.22
68077;BME280;54866;53.458;14.540;2023-05-12T19:23:10;101284.90;;;17.66;34.44
68077;BME280;54866;53.458;14.540;2023-05-12T19:25:40;101291.03;;;17.60;34.38
68077;BME280;54866;53.458;14.540;2023-05-12T19:28:10;101295.37;;;17.55;34.52
68077;BME280;54866;53.458;14.540;2023-05-12T19:30:39;101295.81;;;17.49;34.61
68077;BME280;54866;53.458;14.540;2023-05-12T19:33:09;101300.05;;;17.43;34.81
68077;BME280;54866;53.458;14.540;2023-05-12T19:35:39;101298.57;;;17.38;34.69
68077;BME280;54866;53.458;14.540;2023-05-12T19:38:08;101297.81;;;17.33;34.69
68077;BME280;54866;53.458;14.540;2023-05-12T19:40:38;101305.39;;;17.27;34.74
68077;BME280;54866;53.458;14.540;2023-05-12T19:43:08;101302.20;;;17.19;34.59
68077;BME280;54866;53.458;14.540;2023-05-12T19:45:37;101306.14;;;17.15;34.56
68077;BME280;54866;53.458;14.540;2023-05-12T19:48:08;101309.85;;;17.10;34.50
68077;BME280;54866;53.458;14.540;2023-05-12T19:50:37;101310.39;;;17.04;34.51
68077;BME280;54866;53.458;14.540;2023-05-12T19:53:07;101312.98;;;16.98;34.42
68077;BME280;54866;53.458;14.540;2023-05-12T19:55:37;101313.92;;;16.92;34.37
68077;BME280;54866;53.458;14.540;2023-05-12T19:58:07;101313.35;;;16.86;34.23
68077;BME280;54866;53.458;14.540;2023-05-12T20:00:36;101318.77;;;16.82;34.42
68077;BME280;54866;53.458;14.540;2023-05-12T20:03:06;101320.23;;;16.76;34.44
68077;BME280;54866;53.458;14.540;2023-05-12T20:05:36;101321.66;;;16.70;34.48
68077;BME280;54866;53.458;14.540;2023-05-12T20:08:06;101325.56;;;16.66;34.63
68077;BME280;54866;53.458;14.540;2023-05-12T20:10:36;101319.80;;;16.61;34.63
68077;BME280;54866;53.458;14.540;2023-05-12T20:13:05;101321.30;;;16.56;34.83
68077;BME280;54866;53.458;14.540;2023-05-12T20:15:35;101319.80;;;16.53;34.83
68077;BME280;54866;53.458;14.540;2023-05-12T20:18:07;101319.69;;;16.53;34.91
68077;BME280;54866;53.458;14.540;2023-05-12T20:20:38;101320.28;;;16.50;35.12
68077;BME280;54866;53.458;14.540;2023-05-12T20:23:07;101324.77;;;16.48;35.20
68077;BME280;54866;53.458;14.540;2023-05-12T20:25:37;101321.74;;;16.42;35.30
68077;BME280;54866;53.458;14.540;2023-05-12T20:28:07;101323.75;;;16.36;35.50
68077;BME280;54866;53.458;14.540;2023-05-12T20:30:38;101326.16;;;16.31;35.68
68077;BME280;54866;53.458;14.540;2023-05-12T20:33:08;101327.40;;;16.25;35.76
68077;BME280;54866;53.458;14.540;2023-05-12T20:35:37;101328.30;;;16.17;36.00
68077;BME280;54866;53.458;14.540;2023-05-12T20:38:07;101333.02;;;16.13;36.03
68077;BME280;54866;53.458;14.540;2023-05-12T20:40:37;101331.27;;;16.08;36.21
68077;BME280;54866;53.458;14.540;2023-05-12T20:43:07;101332.54;;;16.03;36.43
68077;BME280;54866;53.458;14.540;2023-05-12T20:45:37;101333.59;;;15.96;36.62
68077;BME280;54866;53.458;14.540;2023-05-12T20:48:08;101334.52;;;15.90;36.78
68077;BME280;54866;53.458;14.540;2023-05-12T20:50:38;101338.33;;;15.85;36.90
68077;BME280;54866;53.458;14.540;2023-05-12T20:53:07;101341.83;;;15.80;37.02
68077;BME280;54866;53.458;14.540;2023-05-12T20:55:37;101340.69;;;15.73;37.27
68077;BME280;54866;53.458;14.540;2023-05-12T20:58:10;101343.38;;;15.67;37.55
68077;BME280;54866;53.458;14.540;2023-05-12T21:00:40;101343.94;;;15.61;37.67
68077;BME280;54866;53.458;14.540;2023-05-12T21:03:09;101343.75;;;15.55;37.82
68077;BME280;54866;53.458;14.540;2023-05-12T21:05:43;101343.52;;;15.49;38.15
68077;BME280;54866;53.458;14.540;2023-05-12T21:08:16;101348.23;;;15.42;38.43
68077;BME280;54866;53.458;14.540;2023-05-12T21:10:46;101347.45;;;15.36;38.57
68077;BME280;54866;53.458;14.540;2023-05-12T21:13:16;101350.38;;;15.29;38.93
68077;BME280;54866;53.458;14.540;2023-05-12T21:15:45;101348.82;;;15.23;39.05
68077;BME280;54866;53.458;14.540;2023-05-12T21:18:15;101346.14;;;15.15;39.14
68077;BME280;54866;53.458;14.540;2023-05-12T21:20:44;101353.25;;;15.09;39.50
68077;BME280;54866;53.458;14.540;2023-05-12T21:23:14;101355.94;;;15.03;39.68
68077;BME280;54866;53.458;14.540;2023-05-12T21:25:43;101356.40;;;14.95;39.72
68077;BME280;54866;53.458;14.540;2023-05-12T21:28:13;101361.38;;;14.89;39.90
68077;BME280;54866;53.458;14.540;2023-05-12T21:30:43;101359.58;;;14.83;39.89
68077;BME280;54866;53.458;14.540;2023-05-12T21:33:13;101358.27;;;14.77;40.13
68077;BME280;54866;53.458;14.540;2023-05-12T21:35:42;101363.70;;;14.74;40.27
68077;BME280;54866;53.458;14.540;2023-05-12T21:38:12;101365.05;;;14.71;40.16
68077;BME280;54866;53.458;14.540;2023-05-12T21:40:42;101362.07;;;14.68;40.30
68077;BME280;54866;53.458;14.540;2023-05-12T21:43:11;101365.83;;;14.66;40.55
68077;BME280;54866;53.458;14.540;2023-05-12T21:45:41;101369.77;;;14.61;40.88
68077;BME280;54866;53.458;14.540;2023-05-12T21:48:11;101367.49;;;14.57;41.09
68077;BME280;54866;53.458;14.540;2023-05-12T21:50:40;101372.20;;;14.54;41.05
68077;BME280;54866;53.458;14.540;2023-05-12T21:53:10;101371.08;;;14.48;41.21
68077;BME280;54866;53.458;14.540;2023-05-12T21:55:40;101373.14;;;14.42;41.52
68077;BME280;54866;53.458;14.540;2023-05-12T21:58:10;101378.61;;;14.38;41.57
68077;BME280;54866;53.458;14.540;2023-05-12T22:00:39;101379.13;;;14.34;41.63
68077;BME280;54866;53.458;14.540;2023-05-12T22:03:09;101375.21;;;14.30;41.70
68077;BME280;54866;53.458;14.540;2023-05-12T22:05:39;101376.85;;;14.27;41.95
68077;BME280;54866;53.458;14.540;2023-05-12T22:08:08;101372.23;;;14.23;42.10
68077;BME280;54866;53.458;14.540;2023-05-12T22:10:38;101375.65;;;14.20;42.13
68077;BME280;54866;53.458;14.540;2023-05-12T22:13:07;101368.95;;;14.18;42.07
68077;BME280;54866;53.458;14.540;2023-05-12T22:15:37;101370.48;;;14.14;42.30
68077;BME280;54866;53.458;14.540;2023-05-12T22:18:07;101373.44;;;14.13;42.15
68077;BME280;54866;53.458;14.540;2023-05-12T22:20:36;101376.04;;;14.11;42.28
68077;BME280;54866;53.458;14.540;2023-05-12T22:23:06;101381.34;;;14.07;42.37
68077;BME280;54866;53.458;14.540;2023-05-12T22:25:35;101377.46;;;14.05;42.48
68077;BME280;54866;53.458;14.540;2023-05-12T22:28:05;101380.83;;;14.02;42.70
68077;BME280;54866;53.458;14.540;2023-05-12T22:30:35;101381.64;;;13.99;42.32
68077;BME280;54866;53.458;14.540;2023-05-12T22:33:04;101384.51;;;13.97;42.53
68077;BME280;54866;53.458;14.540;2023-05-12T22:35:34;101385.51;;;13.93;42.44
68077;BME280;54866;53.458;14.540;2023-05-12T22:38:03;101383.43;;;13.90;42.59
68077;BME280;54866;53.458;14.540;2023-05-12T22:40:33;101385.80;;;13.85;42.69
68077;BME280;54866;53.458;14.540;2023-05-12T22:43:03;101382.45;;;13.80;42.86
68077;BME280;54866;53.458;14.540;2023-05-12T22:45:33;101381.29;;;13.78;42.98
68077;BME280;54866;53.458;14.540;2023-05-12T22:48:03;101382.74;;;13.75;42.97
68077;BME280;54866;53.458;14.540;2023-05-12T22:50:33;101383.40;;;13.73;43.17
68077;BME280;54866;53.458;14.540;2023-05-12T22:53:03;101383.98;;;13.71;42.92
68077;BME280;54866;53.458;14.540;2023-05-12T22:55:32;101384.91;;;13.68;43.04
68077;BME280;54866;53.458;14.540;2023-05-12T22:58:02;101384.71;;;13.64;43.02
68077;BME280;54866;53.458;14.540;2023-05-12T23:00:32;101394.90;;;13.60;43.00
68077;BME280;54866;53.458;14.540;2023-05-12T23:03:01;101391.91;;;13.57;43.12
68077;BME280;54866;53.458;14.540;2023-05-12T23:05:31;101390.71;;;13.55;43.19
68077;BME280;54866;53.458;14.540;2023-05-12T23:08:01;101390.55;;;13.52;43.06
68077;BME280;54866;53.458;14.540;2023-05-12T23:10:30;101391.30;;;13.49;43.07
68077;BME280;54866;53.458;14.540;2023-05-12T23:13:00;101384.81;;;13.47;43.23
68077;BME280;54866;53.458;14.540;2023-05-12T23:15:30;101386.98;;;13.44;43.22
68077;BME280;54866;53.458;14.540;2023-05-12T23:17:59;101383.48;;;13.41;43.18
68077;BME280;54866;53.458;14.540;2023-05-12T23:20:29;101388.52;;;13.40;43.41
68077;BME280;54866;53.458;14.540;2023-05-12T23:22:59;101386.57;;;13.38;43.39
68077;BME280;54866;53.458;14.540;2023-05-12T23:25:28;101382.64;;;13.36;43.48
68077;BME280;54866;53.458;14.540;2023-05-12T23:27:58;101387.11;;;13.31;43.40
68077;BME280;54866;53.458;14.540;2023-05-12T23:30:28;101384.21;;;13.27;43.70
68077;BME280;54866;53.458;14.540;2023-05-12T23:32:59;101383.58;;;13.24;43.88
68077;BME280;54866;53.458;14.540;2023-05-12T23:35:28;101384.11;;;13.20;43.95
68077;BME280;54866;53.458;14.540;2023-05-12T23:37:58;101384.51;;;13.17;43.85
68077;BME280;54866;53.458;14.540;2023-05-12T23:40:28;101387.73;;;13.14;44.06
68077;BME280;54866;53.458;14.540;2023-05-12T23:42:58;101385.48;;;13.09;44.22
68077;BME280;54866;53.458;14.540;2023-05-12T23:45:27;101385.70;;;13.06;44.28
68077;BME280;54866;53.458;14.540;2023-05-12T23:47:57;101387.23;;;13.02;44.52
68077;BME280;54866;53.458;14.540;2023-05-12T23:50:27;101388.90;;;12.98;44.48
68077;BME280;54866;53.458;14.540;2023-05-12T23:52:57;101387.88;;;12.96;44.75
68077;BME280;54866;53.458;14.540;2023-05-12T23:55:26;101387.59;;;12.90;44.77
68077;BME280;54866;53.458;14.540;2023-05-12T23:57:56;101384.84;;;12.87;44.78
